createdAt,value
2022-08-20T00:00:05.636Z,11.85
2022-08-20T00:03:18.535Z,13.63
2022-08-20T00:06:22.187Z,10.52
2022-08-20T00:09:24.192Z,10.53
2022-08-20T00:12:26.187Z,9.97
2022-08-20T00:15:30.283Z,11.18
2022-08-20T00:18:32.368Z,14.30
2022-08-20T00:21:36.395Z,15.65
2022-08-20T00:24:38.465Z,9.63
2022-08-20T00:27:40.599Z,9.10
2022-08-20T00:30:43.260Z,10.85
2022-08-20T00:33:45.507Z,10.13
2022-08-20T00:36:47.544Z,15.52
2022-08-20T00:39:49.618Z,10.10
2022-08-20T00:42:53.400Z,10.50
2022-08-20T00:45:57.347Z,11.52
2022-08-20T00:49:01.670Z,8.60
2022-08-20T00:52:09.471Z,17.63
2022-08-20T00:55:12.648Z,11.57
2022-08-20T00:58:15.160Z,9.00
2022-08-20T01:01:17.296Z,14.23
2022-08-20T01:04:19.441Z,11.57
2022-08-20T01:07:25.802Z,10.48
2022-08-20T01:10:29.783Z,11.80
2022-08-20T01:13:31.923Z,9.43
2022-08-20T01:16:34.332Z,12.05
2022-08-20T01:19:38.307Z,9.07
2022-08-20T01:23:05.084Z,10.75
2022-08-20T01:26:09.742Z,9.90
2022-08-20T01:29:14.496Z,12.40
2022-08-20T01:32:16.575Z,7.70
2022-08-20T01:35:23.600Z,10.02
2022-08-20T01:38:25.589Z,10.38
2022-08-20T01:41:30.644Z,11.30
2022-08-20T01:44:32.970Z,11.50
2022-08-20T01:47:38.560Z,13.25
2022-08-20T01:50:41.925Z,14.02
2022-08-20T01:53:46.402Z,8.75
2022-08-20T01:56:53.619Z,12.20
2022-08-20T01:59:55.978Z,13.93
2022-08-20T02:02:58.067Z,9.75
2022-08-20T02:06:01.328Z,14.50
2022-08-20T02:09:04.516Z,11.35
2022-08-20T02:12:08.494Z,12.13
2022-08-20T02:15:11.239Z,11.33
2022-08-20T02:18:15.574Z,17.67
2022-08-20T02:21:17.663Z,12.82
2022-08-20T02:24:20.199Z,7.60
2022-08-20T02:27:23.751Z,9.70
2022-08-20T02:30:28.979Z,12.23
2022-08-20T02:33:31.122Z,13.43
2022-08-20T02:36:33.174Z,11.32
2022-08-20T02:39:35.336Z,13.55
2022-08-20T02:42:38.803Z,12.97
2022-08-20T02:45:44.086Z,12.63
2022-08-20T02:48:46.217Z,11.90
2022-08-20T02:51:48.272Z,11.88
2022-08-20T02:54:50.359Z,13.52
2022-08-20T02:57:53.016Z,13.03
2022-08-20T03:00:56.954Z,11.73
2022-08-20T03:04:03.595Z,11.98
2022-08-20T03:07:06.721Z,12.80
2022-08-20T03:10:09.184Z,16.10
2022-08-20T03:13:12.618Z,14.03
2022-08-20T03:16:15.255Z,8.20
2022-08-20T03:19:17.385Z,16.73
2022-08-20T03:22:19.396Z,14.13
2022-08-20T03:25:21.491Z,13.70
2022-08-20T03:28:23.755Z,15.10
2022-08-20T03:31:25.795Z,13.40
2022-08-20T03:34:27.885Z,12.30
2022-08-20T03:37:31.312Z,12.13
2022-08-20T03:40:33.797Z,11.25
2022-08-20T03:43:37.470Z,11.50
2022-08-20T03:46:40.122Z,17.80
2022-08-20T03:49:42.140Z,15.63
2022-08-20T03:52:44.195Z,10.63
2022-08-20T03:55:54.086Z,15.00
2022-08-20T03:58:56.817Z,10.13
2022-08-20T04:01:59.936Z,14.10
2022-08-20T04:05:01.943Z,15.55
2022-08-20T04:08:04.137Z,16.10
2022-08-20T04:11:06.234Z,13.25
2022-08-20T04:14:09.195Z,17.03
2022-08-20T04:17:12.504Z,12.57
2022-08-20T04:20:16.774Z,12.30
2022-08-20T04:23:19.204Z,15.00
2022-08-20T04:26:22.400Z,20.10
2022-08-20T04:29:25.967Z,18.40
2022-08-20T04:32:36.938Z,15.03
2022-08-20T04:35:40.359Z,10.20
2022-08-20T04:38:47.939Z,15.77
2022-08-20T04:41:52.471Z,11.93
2022-08-20T04:44:54.529Z,13.77
2022-08-20T04:48:04.853Z,14.87
2022-08-20T04:51:07.889Z,10.25
2022-08-20T04:54:10.404Z,12.65
2022-08-20T04:57:12.387Z,11.25
2022-08-20T05:00:16.225Z,11.33
2022-08-20T05:03:18.264Z,12.27
2022-08-20T05:06:20.540Z,15.13
2022-08-20T05:09:22.578Z,14.75
2022-08-20T05:12:24.551Z,13.50
2022-08-20T05:15:26.657Z,14.33
2022-08-20T05:18:32.911Z,11.80
2022-08-20T05:21:34.914Z,11.10
2022-08-20T05:24:36.955Z,12.77
2022-08-20T05:27:39.659Z,12.32
2022-08-20T05:30:43.097Z,13.43
2022-08-20T05:33:45.138Z,14.47
2022-08-20T05:36:49.642Z,11.10
2022-08-20T05:39:51.800Z,11.80
2022-08-20T05:42:54.158Z,16.58
2022-08-20T05:45:58.457Z,10.03
2022-08-20T05:49:01.917Z,10.27
2022-08-20T05:52:05.288Z,10.38
2022-08-20T05:55:09.274Z,12.18
2022-08-20T05:58:20.730Z,11.38
2022-08-20T06:01:22.901Z,10.90
2022-08-20T06:04:25.017Z,14.37
2022-08-20T06:07:27.060Z,12.32
2022-08-20T06:10:29.029Z,8.35
2022-08-20T06:13:31.032Z,9.35
2022-08-20T06:16:33.204Z,10.20
2022-08-20T06:19:36.459Z,9.70
2022-08-20T06:22:38.931Z,12.65
2022-08-20T06:25:41.124Z,11.70
2022-08-20T06:28:43.316Z,12.63
2022-08-20T06:31:45.411Z,10.17
2022-08-20T06:34:50.311Z,10.13
2022-08-20T06:37:53.419Z,11.02
2022-08-20T06:40:55.431Z,13.25
2022-08-20T06:43:57.394Z,15.15
2022-08-20T06:47:04.421Z,12.73
2022-08-20T06:50:17.544Z,14.40
2022-08-20T06:53:20.805Z,12.85
2022-08-20T06:56:22.850Z,15.88
2022-08-20T06:59:24.852Z,10.77
2022-08-20T07:02:29.164Z,14.97
2022-08-20T07:05:33.923Z,16.43
2022-08-20T07:08:35.920Z,9.70
2022-08-20T07:11:38.276Z,9.65
2022-08-20T07:14:40.267Z,9.30
2022-08-20T07:17:42.312Z,10.00
2022-08-20T07:20:44.496Z,11.37
2022-08-20T07:23:49.480Z,11.35
2022-08-20T07:26:52.189Z,8.93
2022-08-20T07:30:17.388Z,11.80
2022-08-20T07:33:22.668Z,9.73
2022-08-20T07:36:25.267Z,12.70
2022-08-20T07:39:28.520Z,19.75
2022-08-20T07:42:33.114Z,12.73
2022-08-20T07:45:35.834Z,15.98
2022-08-20T07:48:40.072Z,16.80
2022-08-20T07:51:42.253Z,18.50
2022-08-20T07:54:44.449Z,17.52
2022-08-20T07:57:48.024Z,18.77
2022-08-20T08:00:50.629Z,19.25
2022-08-20T08:03:54.104Z,17.60
2022-08-20T08:06:59.933Z,13.07
2022-08-20T08:10:02.636Z,14.68
2022-08-20T08:13:07.918Z,17.38
2022-08-20T08:16:10.282Z,18.10
2022-08-20T08:19:14.441Z,19.53
2022-08-20T08:22:17.524Z,24.87
2022-08-20T08:25:19.734Z,31.75
2022-08-20T08:28:22.058Z,29.45
2022-08-20T08:31:25.698Z,24.83
2022-08-20T08:34:27.771Z,21.80
2022-08-20T08:37:30.892Z,15.73
2022-08-20T08:40:33.831Z,14.00
2022-08-20T08:43:35.854Z,13.63
2022-08-20T08:46:44.808Z,12.93
2022-08-20T08:49:47.615Z,14.33
2022-08-20T08:52:52.258Z,11.23
2022-08-20T08:55:54.454Z,8.95
2022-08-20T08:59:01.062Z,17.85
2022-08-20T09:02:03.167Z,14.60
2022-08-20T09:05:13.603Z,14.73
2022-08-20T09:08:17.283Z,16.93
2022-08-20T09:11:20.616Z,18.83
2022-08-20T09:14:24.979Z,14.57
2022-08-20T09:17:27.052Z,23.35
2022-08-20T09:20:29.083Z,20.23
2022-08-20T09:23:31.186Z,18.83
2022-08-20T09:26:34.559Z,23.00
2022-08-20T09:29:39.868Z,23.33
2022-08-20T09:32:42.416Z,21.10
2022-08-20T09:35:46.576Z,12.73
2022-08-20T09:38:48.619Z,15.80
2022-08-20T09:41:50.604Z,14.32
2022-08-20T09:44:53.003Z,19.23
2022-08-20T09:48:10.222Z,18.70
2022-08-20T09:51:12.919Z,13.50
2022-08-20T09:54:14.965Z,18.90
2022-08-20T09:57:17.277Z,15.98
2022-08-20T10:00:20.113Z,19.23
2022-08-20T10:03:22.227Z,16.98
2022-08-20T10:06:24.300Z,19.50
2022-08-20T10:09:26.295Z,13.90
2022-08-20T10:12:28.297Z,18.90
2022-08-20T10:15:30.818Z,20.73
2022-08-20T10:18:32.890Z,12.85
2022-08-20T10:21:38.683Z,16.70
2022-08-20T10:24:41.192Z,20.63
2022-08-20T10:27:43.360Z,16.65
2022-08-20T10:30:45.336Z,18.30
2022-08-20T10:33:47.416Z,15.57
2022-08-20T10:36:49.550Z,18.57
2022-08-20T10:39:51.719Z,19.53
2022-08-20T10:42:53.895Z,15.10
2022-08-20T10:45:56.067Z,16.13
2022-08-20T10:48:58.100Z,19.27
2022-08-20T10:52:00.106Z,16.20
2022-08-20T10:55:04.329Z,19.17
2022-08-20T10:58:07.219Z,14.70
2022-08-20T11:01:13.493Z,17.20
2022-08-20T11:04:35.287Z,14.85
2022-08-20T11:07:52.829Z,17.20
2022-08-20T11:11:02.028Z,14.60
2022-08-20T11:14:04.142Z,14.85
2022-08-20T11:17:06.830Z,15.50
2022-08-20T11:20:09.483Z,16.02
2022-08-20T11:23:11.809Z,12.57
2022-08-20T11:26:21.163Z,14.67
2022-08-20T11:29:24.758Z,12.82
2022-08-20T11:32:27.298Z,20.40
2022-08-20T11:35:49.320Z,16.40
2022-08-20T11:38:52.787Z,13.80
2022-08-20T11:41:55.442Z,16.27
2022-08-20T11:44:57.560Z,12.95
2022-08-20T11:47:59.614Z,14.32
2022-08-20T11:51:02.582Z,14.80
2022-08-20T11:54:05.152Z,15.63
2022-08-20T11:57:08.595Z,15.47
2022-08-20T12:00:15.352Z,11.18
2022-08-20T12:03:17.460Z,12.48
2022-08-20T12:06:19.517Z,12.88
2022-08-20T12:09:24.676Z,15.83
2022-08-20T12:12:26.865Z,11.40
2022-08-20T12:15:28.936Z,14.45
2022-08-20T12:18:31.925Z,18.35
2022-08-20T12:21:34.007Z,12.07
2022-08-20T12:24:36.634Z,16.53
2022-08-20T12:27:39.298Z,13.90
2022-08-20T12:30:41.814Z,15.10
2022-08-20T12:33:43.832Z,13.15
2022-08-20T12:36:45.834Z,14.07
2022-08-20T12:39:49.794Z,11.73
2022-08-20T12:42:51.848Z,14.03
2022-08-20T12:45:55.945Z,13.25
2022-08-20T12:48:58.028Z,12.13
2022-08-20T12:52:00.181Z,14.63
2022-08-20T12:55:02.599Z,18.40
2022-08-20T12:58:07.257Z,14.63
2022-08-20T13:01:09.325Z,13.70
2022-08-20T13:04:11.352Z,12.85
2022-08-20T13:07:13.835Z,15.20
2022-08-20T13:10:17.813Z,15.80
2022-08-20T13:13:20.424Z,16.70
2022-08-20T13:16:23.161Z,16.38
2022-08-20T13:19:25.742Z,17.88
2022-08-20T13:22:27.771Z,12.93
2022-08-20T13:25:29.935Z,16.57
2022-08-20T13:28:32.015Z,13.63
2022-08-20T13:31:34.029Z,13.13
2022-08-20T13:34:36.056Z,17.50
2022-08-20T13:37:38.975Z,12.77
2022-08-20T13:40:41.022Z,14.50
2022-08-20T13:43:43.052Z,13.33
2022-08-20T13:46:45.196Z,11.55
2022-08-20T13:49:47.907Z,16.55
2022-08-20T13:52:50.006Z,15.98
2022-08-20T13:55:52.351Z,13.00
2022-08-20T13:58:54.361Z,13.33
2022-08-20T14:01:56.396Z,15.25
2022-08-20T14:04:58.516Z,15.80
2022-08-20T14:08:08.468Z,12.82
2022-08-20T14:11:13.870Z,13.07
2022-08-20T14:14:19.676Z,14.93
2022-08-20T14:17:21.951Z,12.95
2022-08-20T14:20:25.499Z,13.07
2022-08-20T14:23:31.204Z,12.32
2022-08-20T14:26:38.903Z,14.43
2022-08-20T14:29:42.760Z,13.17
2022-08-20T14:32:44.767Z,13.13
2022-08-20T14:35:46.731Z,13.18
2022-08-20T14:38:48.803Z,18.40
2022-08-20T14:41:51.104Z,13.83
2022-08-20T14:44:53.390Z,14.67
2022-08-20T14:47:57.214Z,11.30
2022-08-20T14:50:59.618Z,13.18
2022-08-20T14:54:01.589Z,10.73
2022-08-20T14:57:03.853Z,9.03
2022-08-20T15:00:09.532Z,12.13
2022-08-20T15:03:13.401Z,11.77
2022-08-20T15:06:21.842Z,13.13
2022-08-20T15:09:24.485Z,12.02
2022-08-20T15:12:27.012Z,10.30
2022-08-20T15:15:29.029Z,10.63
2022-08-20T15:18:31.296Z,15.60
2022-08-20T15:21:45.532Z,13.68
2022-08-20T15:24:47.748Z,11.63
2022-08-20T15:27:49.861Z,11.23
2022-08-20T15:30:51.920Z,13.53
2022-08-20T15:33:53.967Z,9.90
2022-08-20T15:36:56.896Z,11.45
2022-08-20T15:40:02.061Z,13.68
2022-08-20T15:43:05.436Z,13.97
2022-08-20T15:46:08.083Z,15.37
2022-08-20T15:49:11.516Z,12.32
2022-08-20T15:52:14.125Z,8.45
2022-08-20T15:55:16.694Z,11.40
2022-08-20T15:58:23.956Z,16.63
2022-08-20T16:01:32.336Z,18.30
2022-08-20T16:04:34.357Z,11.77
2022-08-20T16:07:36.407Z,14.25
2022-08-20T16:10:41.259Z,16.38
2022-08-20T16:13:50.704Z,14.33
2022-08-20T16:17:03.175Z,13.23
2022-08-20T16:20:09.549Z,13.88
2022-08-20T16:23:12.549Z,15.20
2022-08-20T16:26:23.373Z,9.70
2022-08-20T16:29:37.889Z,15.07
2022-08-20T16:32:44.747Z,12.00
2022-08-20T16:36:07.102Z,15.65
2022-08-20T16:39:13.093Z,13.90
2022-08-20T16:42:17.969Z,12.30
2022-08-20T16:45:21.676Z,10.10
2022-08-20T16:48:26.482Z,11.47
2022-08-20T16:51:40.949Z,16.13
2022-08-20T16:54:44.503Z,11.52
2022-08-20T16:57:47.914Z,8.82
2022-08-20T17:01:03.334Z,10.27
2022-08-20T17:04:06.436Z,16.03
2022-08-20T17:07:09.888Z,12.35
2022-08-20T17:10:26.065Z,13.93
2022-08-20T17:13:32.390Z,17.38
2022-08-20T17:16:39.685Z,18.50
2022-08-20T17:19:41.728Z,19.80
2022-08-20T17:22:45.342Z,21.88
2022-08-20T17:26:01.067Z,14.63
2022-08-20T17:29:12.897Z,18.27
2022-08-20T17:32:16.912Z,18.10
2022-08-20T17:35:43.063Z,18.83
2022-08-20T17:38:49.979Z,15.90
2022-08-20T17:41:59.726Z,20.42
2022-08-20T17:45:22.170Z,18.48
2022-08-20T17:48:27.427Z,20.17
2022-08-20T17:51:32.977Z,19.53
2022-08-20T17:54:37.217Z,16.52
2022-08-20T17:57:43.097Z,16.05
2022-08-20T18:00:45.306Z,15.95
2022-08-20T18:03:49.013Z,16.10
2022-08-20T18:07:04.684Z,20.43
2022-08-20T18:10:10.176Z,18.73
2022-08-20T18:13:17.891Z,17.65
2022-08-20T18:16:28.958Z,19.10
2022-08-20T18:19:49.591Z,22.27
2022-08-20T18:22:57.450Z,25.60
2022-08-20T18:26:22.727Z,19.15
2022-08-20T18:29:27.582Z,21.95
2022-08-20T18:32:32.883Z,22.10
2022-08-20T18:35:45.547Z,24.03
2022-08-20T18:39:06.808Z,23.13
2022-08-20T18:42:17.745Z,28.05
2022-08-20T18:45:33.463Z,29.13
2022-08-20T18:48:35.822Z,25.77
2022-08-20T18:51:41.027Z,21.07
2022-08-20T18:54:49.019Z,27.43
2022-08-20T18:57:59.455Z,25.70
2022-08-20T19:01:03.493Z,29.65
2022-08-20T19:04:25.800Z,29.02
2022-08-20T19:07:48.077Z,24.40
2022-08-20T19:10:53.840Z,26.63
2022-08-20T19:14:01.724Z,24.70
2022-08-20T19:17:09.645Z,25.48
2022-08-20T19:20:15.044Z,24.08
2022-08-20T19:23:19.547Z,23.63
2022-08-20T19:26:25.897Z,24.13
2022-08-20T19:29:30.771Z,32.60
2022-08-20T19:32:33.132Z,29.85
2022-08-20T19:35:35.795Z,30.08
2022-08-20T19:39:04.008Z,25.83
2022-08-20T19:42:15.461Z,30.43
2022-08-20T19:45:32.440Z,24.13
2022-08-20T19:48:41.905Z,25.40
2022-08-20T19:51:45.829Z,27.95
2022-08-20T19:54:51.524Z,25.60
2022-08-20T19:57:54.743Z,24.30
2022-08-20T20:00:56.795Z,24.52
2022-08-20T20:04:01.365Z,20.90
2022-08-20T20:07:03.435Z,19.75
2022-08-20T20:10:08.331Z,24.17
2022-08-20T20:13:13.061Z,24.03
2022-08-20T20:16:17.157Z,21.98
2022-08-20T20:19:27.873Z,22.48
2022-08-20T20:22:31.823Z,24.58
2022-08-20T20:25:34.167Z,24.53
2022-08-20T20:28:50.345Z,21.00
2022-08-20T20:31:54.302Z,23.67
2022-08-20T20:34:58.316Z,24.95
2022-08-20T20:38:08.284Z,23.17
2022-08-20T20:41:18.527Z,22.37
2022-08-20T20:44:23.285Z,24.47
2022-08-20T20:47:32.488Z,23.60
2022-08-20T20:50:38.467Z,22.13
2022-08-20T20:53:53.279Z,21.30
2022-08-20T20:57:03.971Z,20.43
2022-08-20T21:00:09.662Z,23.93
2022-08-20T21:03:12.175Z,24.92
2022-08-20T21:06:14.224Z,23.88
2022-08-20T21:09:16.908Z,21.20
2022-08-20T21:12:19.729Z,17.23
2022-08-20T21:15:22.817Z,18.53
2022-08-20T21:18:26.411Z,20.58
2022-08-20T21:21:28.653Z,19.50
2022-08-20T21:24:30.716Z,19.63
2022-08-20T21:27:33.282Z,21.73
2022-08-20T21:30:35.311Z,22.20
2022-08-20T21:33:37.317Z,20.05
2022-08-20T21:36:39.773Z,20.00
2022-08-20T21:39:41.836Z,19.02
2022-08-20T21:42:44.234Z,16.77
2022-08-20T21:45:46.713Z,18.37
2022-08-20T21:48:51.798Z,18.60
2022-08-20T21:51:54.177Z,17.77
2022-08-20T21:54:56.234Z,20.80
2022-08-20T21:57:58.687Z,17.53
2022-08-20T22:01:02.333Z,19.13
2022-08-20T22:04:05.557Z,19.20
2022-08-20T22:07:07.746Z,17.38
2022-08-20T22:10:10.538Z,18.25
2022-08-20T22:13:12.943Z,16.87
2022-08-20T22:16:16.322Z,17.43
2022-08-20T22:19:18.509Z,22.00
2022-08-20T22:22:21.228Z,19.92
2022-08-20T22:25:23.440Z,20.98
2022-08-20T22:28:26.627Z,21.70
2022-08-20T22:31:33.561Z,19.33
2022-08-20T22:34:37.219Z,19.00
2022-08-20T22:37:39.262Z,17.33
2022-08-20T22:40:41.891Z,21.70
2022-08-20T22:43:57.132Z,22.70
2022-08-20T22:47:01.109Z,21.60
2022-08-20T22:50:04.024Z,21.75
2022-08-20T22:53:07.106Z,24.92
2022-08-20T22:56:09.104Z,23.67
2022-08-20T22:59:22.781Z,21.63
2022-08-20T23:02:24.952Z,23.70
2022-08-20T23:05:27.952Z,23.58
2022-08-20T23:08:30.311Z,23.48
2022-08-20T23:11:32.418Z,28.50
2022-08-20T23:14:34.484Z,22.23
2022-08-20T23:17:38.097Z,22.30
2022-08-20T23:20:40.972Z,26.10
2022-08-20T23:23:42.990Z,26.92
2022-08-20T23:26:52.633Z,27.52
2022-08-20T23:29:56.797Z,25.90
2022-08-20T23:33:01.430Z,23.17
2022-08-20T23:36:05.393Z,25.05
2022-08-20T23:39:07.525Z,22.13
2022-08-20T23:42:11.083Z,23.08
2022-08-20T23:45:13.799Z,24.03
2022-08-20T23:48:15.844Z,23.50
2022-08-20T23:51:17.881Z,22.38
2022-08-20T23:54:19.905Z,29.38
2022-08-20T23:57:22.021Z,28.77
